createdAt,value
2018-07-03T00:01:08.566Z,86.20
2018-07-03T00:03:37.126Z,86.10
2018-07-03T00:06:05.690Z,86.10
2018-07-03T00:08:34.226Z,86.20
2018-07-03T00:11:02.793Z,85.80
2018-07-03T00:13:31.333Z,85.10
2018-07-03T00:16:00.126Z,84.90
2018-07-03T00:18:28.983Z,84.70
2018-07-03T00:20:57.845Z,84.80
2018-07-03T00:23:26.712Z,84.60
2018-07-03T00:25:55.579Z,84.30
2018-07-03T00:28:24.421Z,83.20
2018-07-03T00:30:53.263Z,82.90
2018-07-03T00:33:22.089Z,82.90
2018-07-03T00:35:50.960Z,82.80
2018-07-03T00:38:19.773Z,82.00
2018-07-03T00:40:48.583Z,81.90
2018-07-03T00:43:17.436Z,81.60
2018-07-03T00:45:46.283Z,81.50
2018-07-03T00:48:15.113Z,81.30
2018-07-03T00:50:43.948Z,81.40
2018-07-03T00:53:12.868Z,81.70
2018-07-03T00:55:41.476Z,81.60
2018-07-03T00:58:10.023Z,82.00
2018-07-03T01:00:38.595Z,82.10
2018-07-03T01:03:07.152Z,82.30
2018-07-03T01:05:35.720Z,82.50
2018-07-03T01:08:04.275Z,82.70
2018-07-03T01:10:32.825Z,82.80
2018-07-03T01:13:01.363Z,82.80
2018-07-03T01:15:29.902Z,82.90
2018-07-03T01:17:58.658Z,83.00
2018-07-03T01:20:27.497Z,82.90
2018-07-03T01:22:57.012Z,82.60
2018-07-03T01:25:26.004Z,82.60
2018-07-03T01:27:54.655Z,82.90
2018-07-03T01:30:23.235Z,82.60
2018-07-03T01:32:51.770Z,82.90
2018-07-03T01:35:20.277Z,83.00
2018-07-03T01:37:48.820Z,82.70
2018-07-03T01:40:17.415Z,83.10
2018-07-03T01:42:45.943Z,82.60
2018-07-03T01:45:14.493Z,82.50
2018-07-03T01:47:43.243Z,82.50
2018-07-03T01:50:12.163Z,82.80
2018-07-03T01:52:41.021Z,82.80
2018-07-03T01:55:09.867Z,82.90
2018-07-03T01:57:38.745Z,82.70
2018-07-03T02:00:07.627Z,82.30
2018-07-03T02:02:36.253Z,82.30
2018-07-03T02:07:33.205Z,82.80
2018-07-03T02:10:01.741Z,82.80
2018-07-03T02:12:30.288Z,83.00
2018-07-03T02:14:58.807Z,83.10
2018-07-03T02:17:27.345Z,83.30
2018-07-03T02:19:55.870Z,83.00
2018-07-03T02:22:25.747Z,82.90
2018-07-03T02:24:54.485Z,83.10
2018-07-03T02:27:23.010Z,83.20
2018-07-03T02:29:51.510Z,83.30
2018-07-03T02:32:20.255Z,84.10
2018-07-03T02:34:49.085Z,85.20
2018-07-03T02:37:17.974Z,85.50
2018-07-03T02:39:46.873Z,85.60
2018-07-03T02:42:15.803Z,85.10
2018-07-03T02:44:44.695Z,86.50
2018-07-03T02:47:13.536Z,87.10
2018-07-03T02:49:42.357Z,87.60
2018-07-03T02:52:11.215Z,88.40
2018-07-03T02:54:40.156Z,88.20
2018-07-03T02:57:09.048Z,87.90
2018-07-03T02:59:37.923Z,87.60
2018-07-03T03:02:06.873Z,88.10
2018-07-03T03:04:35.725Z,88.70
2018-07-03T03:07:04.708Z,88.60
2018-07-03T03:09:33.594Z,87.60
2018-07-03T03:12:02.481Z,88.20
2018-07-03T03:14:31.346Z,88.30
2018-07-03T03:17:00.208Z,89.00
2018-07-03T03:19:29.051Z,88.80
2018-07-03T03:21:57.676Z,88.60
2018-07-03T03:24:26.200Z,88.40
2018-07-03T03:26:54.731Z,88.90
2018-07-03T03:31:51.853Z,88.80
2018-07-03T03:34:20.708Z,89.20
2018-07-03T03:36:49.598Z,89.40
2018-07-03T03:39:18.531Z,89.30
2018-07-03T03:41:47.473Z,89.20
2018-07-03T03:44:16.394Z,89.40
2018-07-03T03:46:45.283Z,89.60
2018-07-03T03:49:14.160Z,89.60
2018-07-03T03:51:43.035Z,89.60
2018-07-03T03:54:11.898Z,89.10
2018-07-03T03:56:40.804Z,89.30
2018-07-03T03:59:09.704Z,89.10
2018-07-03T04:01:38.316Z,89.20
2018-07-03T04:04:06.831Z,88.50
2018-07-03T04:06:35.490Z,88.50
2018-07-03T04:09:06.719Z,88.60
2018-07-03T04:11:35.711Z,88.50
2018-07-03T04:14:04.823Z,88.60
2018-07-03T04:16:33.736Z,88.60
2018-07-03T04:19:02.583Z,88.90
2018-07-03T04:21:31.428Z,89.10
2018-07-03T04:24:00.255Z,89.40
2018-07-03T04:26:29.133Z,89.30
2018-07-03T04:28:57.976Z,89.20
2018-07-03T04:31:26.820Z,89.30
2018-07-03T04:33:55.483Z,89.10
2018-07-03T04:36:24.007Z,89.10
2018-07-03T04:38:52.538Z,89.00
2018-07-03T04:43:49.733Z,88.40
2018-07-03T04:46:18.577Z,88.20
2018-07-03T04:48:47.428Z,88.00
2018-07-03T04:51:16.263Z,88.80
2018-07-03T04:53:44.906Z,87.70
2018-07-03T04:56:13.450Z,87.60
2018-07-03T04:58:41.971Z,87.50
2018-07-03T05:01:10.485Z,87.30
2018-07-03T05:03:39.303Z,86.30
2018-07-03T05:06:08.220Z,86.00
2018-07-03T05:08:37.095Z,86.00
2018-07-03T05:11:06.056Z,85.60
2018-07-03T05:13:34.951Z,85.90
2018-07-03T05:16:03.818Z,85.10
2018-07-03T05:18:32.738Z,85.00
2018-07-03T05:21:01.614Z,84.20
2018-07-03T05:23:30.483Z,83.70
2018-07-03T05:25:59.098Z,83.60
2018-07-03T05:28:27.664Z,83.30
2018-07-03T05:30:56.248Z,82.90
2018-07-03T05:33:24.953Z,83.00
2018-07-03T05:35:53.441Z,83.40
2018-07-03T05:38:22.007Z,82.70
2018-07-03T05:40:50.516Z,82.30
2018-07-03T05:43:19.058Z,82.10
2018-07-03T05:45:47.821Z,82.40
2018-07-03T05:48:16.672Z,82.50
2018-07-03T05:50:45.571Z,82.70
2018-07-03T05:53:14.486Z,82.40
2018-07-03T05:55:43.439Z,82.90
2018-07-03T05:58:12.363Z,82.80
2018-07-03T06:00:41.332Z,82.30
2018-07-03T06:03:10.261Z,82.80
2018-07-03T06:05:39.204Z,82.90
2018-07-03T06:08:08.099Z,83.10
2018-07-03T06:10:37.029Z,83.30
2018-07-03T06:13:06.076Z,83.40
2018-07-03T06:15:35.071Z,83.60
2018-07-03T06:18:03.764Z,83.10
2018-07-03T06:20:32.458Z,82.80
2018-07-03T06:23:01.093Z,82.60
2018-07-03T06:25:29.671Z,82.50
2018-07-03T06:27:58.606Z,82.60
2018-07-03T06:30:27.169Z,82.60
2018-07-03T06:35:24.662Z,81.60
2018-07-03T06:37:53.266Z,81.00
2018-07-03T06:40:22.381Z,80.70
2018-07-03T06:42:50.976Z,80.20
2018-07-03T06:45:19.569Z,80.80
2018-07-03T06:47:50.007Z,80.10
2018-07-03T06:50:18.956Z,80.30
2018-07-03T06:52:47.989Z,80.10
2018-07-03T06:55:16.891Z,79.40
2018-07-03T06:57:45.995Z,77.60
2018-07-03T07:00:14.717Z,78.00
2018-07-03T07:02:43.323Z,78.10
2018-07-03T07:05:11.861Z,77.10
2018-07-03T07:07:40.524Z,76.80
2018-07-03T07:10:36.169Z,76.40
2018-07-03T07:13:05.029Z,76.50
2018-07-03T07:15:33.729Z,76.00
2018-07-03T07:18:02.431Z,76.30
2018-07-03T07:20:31.155Z,75.00
2018-07-03T07:22:59.961Z,74.80
2018-07-03T07:25:28.869Z,73.40
2018-07-03T07:27:57.777Z,73.90
2018-07-03T07:30:26.706Z,73.00
2018-07-03T07:32:55.444Z,71.30
2018-07-03T07:35:24.134Z,69.60
2018-07-03T07:37:52.944Z,68.00
2018-07-03T07:40:21.607Z,67.50
2018-07-03T07:42:50.604Z,67.30
2018-07-03T07:45:19.564Z,65.60
2018-07-03T07:47:48.671Z,65.40
2018-07-03T07:50:17.533Z,64.40
2018-07-03T07:52:46.298Z,64.00
2018-07-03T07:55:16.140Z,63.50
2018-07-03T08:00:14.325Z,64.40
2018-07-03T08:02:43.031Z,64.10
2018-07-03T08:05:11.774Z,64.70
2018-07-03T08:07:40.415Z,65.40
2018-07-03T08:10:09.121Z,64.80
2018-07-03T08:12:38.149Z,64.10
2018-07-03T08:15:07.169Z,64.60
2018-07-03T08:20:04.910Z,65.00
2018-07-03T08:22:33.906Z,64.30
2018-07-03T08:25:02.928Z,64.10
2018-07-03T08:27:31.872Z,64.00
2018-07-03T08:30:00.888Z,63.00
2018-07-03T08:32:29.654Z,61.80
2018-07-03T08:34:58.376Z,61.40
2018-07-03T08:37:27.136Z,59.30
2018-07-03T08:39:55.843Z,60.30
2018-07-03T08:42:24.489Z,58.80
2018-07-03T08:44:53.174Z,58.80
2018-07-03T08:47:21.846Z,58.10
2018-07-03T08:49:50.501Z,61.30
2018-07-03T08:54:48.143Z,59.40
2018-07-03T08:57:17.129Z,59.60
2018-07-03T08:59:46.024Z,57.80
2018-07-03T09:02:15.058Z,56.30
2018-07-03T09:04:44.023Z,57.20
2018-07-03T09:07:12.907Z,56.10
2018-07-03T09:09:41.871Z,51.00
2018-07-03T09:12:10.876Z,50.40
2018-07-03T09:14:39.801Z,46.70
2018-07-03T09:17:14.354Z,48.70
2018-07-03T09:19:43.328Z,48.60
2018-07-03T09:22:12.049Z,49.20
2018-07-03T09:24:40.888Z,50.90
2018-07-03T09:27:09.598Z,50.80
2018-07-03T09:29:38.263Z,50.90
2018-07-03T09:32:07.138Z,52.40
2018-07-03T09:34:36.033Z,53.90
2018-07-03T09:37:05.271Z,55.00
2018-07-03T09:39:34.201Z,54.40
2018-07-03T09:42:02.946Z,54.90
2018-07-03T09:44:32.115Z,54.50
2018-07-03T09:47:00.861Z,54.40
2018-07-03T09:49:29.533Z,52.30
2018-07-03T09:51:58.278Z,50.40
2018-07-03T09:54:26.904Z,49.80
2018-07-03T09:56:55.514Z,51.90
2018-07-03T09:59:24.146Z,52.50
2018-07-03T10:01:52.961Z,51.80
2018-07-03T10:04:21.666Z,52.70
2018-07-03T10:06:50.325Z,52.80
2018-07-03T10:09:18.989Z,51.40
2018-07-03T10:11:47.699Z,53.70
2018-07-03T10:14:16.336Z,53.30
2018-07-03T10:16:44.993Z,54.10
2018-07-03T10:19:13.663Z,53.40
2018-07-03T10:21:42.366Z,53.50
2018-07-03T10:24:11.020Z,52.70
2018-07-03T10:26:39.689Z,52.00
2018-07-03T10:29:08.456Z,52.50
2018-07-03T10:31:37.264Z,49.70
2018-07-03T10:34:06.196Z,50.40
2018-07-03T10:36:35.089Z,49.80
2018-07-03T10:39:06.513Z,49.20
2018-07-03T10:41:35.311Z,47.80
2018-07-03T10:44:04.395Z,46.20
2018-07-03T10:46:33.086Z,45.30
2018-07-03T10:49:01.749Z,44.00
2018-07-03T10:51:30.591Z,45.30
2018-07-03T10:53:59.768Z,46.70
2018-07-03T10:56:28.664Z,43.70
2018-07-03T10:58:57.638Z,44.60
2018-07-03T11:01:26.563Z,44.70
2018-07-03T11:03:55.571Z,43.60
2018-07-03T11:06:24.531Z,43.80
2018-07-03T11:08:53.518Z,43.50
2018-07-03T11:11:22.459Z,44.70
2018-07-03T11:13:51.531Z,40.80
2018-07-03T11:16:20.483Z,42.00
2018-07-03T11:18:49.406Z,41.10
2018-07-03T11:21:18.854Z,42.00
2018-07-03T11:23:50.184Z,43.10
2018-07-03T11:26:18.971Z,42.90
2018-07-03T11:28:47.697Z,40.50
2018-07-03T11:31:16.291Z,41.70
2018-07-03T11:33:44.991Z,38.50
2018-07-03T11:36:13.583Z,39.90
2018-07-03T11:38:42.383Z,40.20
2018-07-03T11:41:11.082Z,40.40
2018-07-03T11:43:40.226Z,40.60
2018-07-03T11:46:09.162Z,39.00
2018-07-03T11:48:38.469Z,38.30
2018-07-03T11:51:07.256Z,39.80
2018-07-03T11:53:36.917Z,40.70
2018-07-03T11:56:05.918Z,41.00
2018-07-03T11:58:35.624Z,42.20
2018-07-03T12:01:04.604Z,41.00
2018-07-03T12:03:33.377Z,41.60
2018-07-03T12:06:02.639Z,40.10
2018-07-03T12:08:31.399Z,39.40
2018-07-03T12:11:00.968Z,38.70
2018-07-03T12:13:30.748Z,38.00
2018-07-03T12:15:59.779Z,38.60
2018-07-03T12:18:39.836Z,38.80
2018-07-03T12:21:09.231Z,38.20
2018-07-03T12:23:38.679Z,38.10
2018-07-03T12:26:07.887Z,36.70
2018-07-03T12:28:42.491Z,35.60
2018-07-03T12:31:11.925Z,37.00
2018-07-03T12:33:40.623Z,35.00
2018-07-03T12:36:10.180Z,37.60
2018-07-03T12:38:38.911Z,37.30
2018-07-03T12:41:07.872Z,35.80
2018-07-03T12:43:36.826Z,34.90
2018-07-03T12:46:05.969Z,34.90
2018-07-03T12:48:35.074Z,37.20
2018-07-03T12:51:04.749Z,37.20
2018-07-03T12:53:33.850Z,36.50
2018-07-03T12:56:02.525Z,36.00
2018-07-03T12:58:31.251Z,37.30
2018-07-03T13:00:59.948Z,37.50
2018-07-03T13:03:28.588Z,39.00
2018-07-03T13:05:57.352Z,38.60
2018-07-03T13:08:26.094Z,38.80
2018-07-03T13:10:57.362Z,36.70
2018-07-03T13:13:26.056Z,34.40
2018-07-03T13:15:54.857Z,35.90
2018-07-03T13:18:23.970Z,36.70
2018-07-03T13:20:54.159Z,37.00
2018-07-03T13:25:53.376Z,36.40
2018-07-03T13:28:22.491Z,38.40
2018-07-03T13:30:51.634Z,37.50
2018-07-03T13:33:22.499Z,37.20
2018-07-03T13:35:51.463Z,37.40
2018-07-03T13:38:20.961Z,37.80
2018-07-03T13:40:49.991Z,39.50
2018-07-03T13:43:24.502Z,38.00
2018-07-03T13:45:53.599Z,37.00
2018-07-03T13:48:22.729Z,35.80
2018-07-03T13:53:20.144Z,35.70
2018-07-03T13:55:48.873Z,36.20
2018-07-03T13:58:17.577Z,35.20
2018-07-03T14:00:46.494Z,34.00
2018-07-03T14:03:15.548Z,35.00
2018-07-03T14:05:44.496Z,35.50
2018-07-03T14:08:13.392Z,36.50
2018-07-03T14:10:42.212Z,34.60
2018-07-03T14:13:12.337Z,35.20
2018-07-03T14:15:40.959Z,33.60
2018-07-03T14:18:09.634Z,33.70
2018-07-03T14:20:38.578Z,34.40
2018-07-03T14:23:07.513Z,33.90
2018-07-03T14:25:36.456Z,34.20
2018-07-03T14:28:05.405Z,33.90
2018-07-03T14:30:34.820Z,34.40
2018-07-03T14:33:03.459Z,34.80
2018-07-03T14:35:32.125Z,35.50
2018-07-03T14:40:29.416Z,35.20
2018-07-03T14:42:58.366Z,32.30
2018-07-03T14:45:27.336Z,34.00
2018-07-03T14:47:56.234Z,34.00
2018-07-03T14:50:24.931Z,34.30
2018-07-03T14:52:53.561Z,33.40
2018-07-03T14:55:22.199Z,34.20
2018-07-03T14:57:50.756Z,33.70
2018-07-03T15:00:19.604Z,34.30
2018-07-03T15:02:48.539Z,33.90
2018-07-03T15:05:17.499Z,31.40
2018-07-03T15:07:47.219Z,31.50
2018-07-03T15:10:16.154Z,34.00
2018-07-03T15:12:45.012Z,34.80
2018-07-03T15:15:14.244Z,35.50
2018-07-03T15:17:43.199Z,35.30
2018-07-03T15:20:12.246Z,34.90
2018-07-03T15:22:41.219Z,33.70
2018-07-03T15:25:10.176Z,35.00
2018-07-03T15:27:39.064Z,34.40
2018-07-03T15:30:08.046Z,35.10
2018-07-03T15:32:37.154Z,35.10
2018-07-03T15:35:06.146Z,37.20
2018-07-03T15:37:35.219Z,38.00
2018-07-03T15:40:04.308Z,38.00
2018-07-03T15:42:34.539Z,37.60
2018-07-03T15:45:12.890Z,36.60
2018-07-03T15:47:47.358Z,37.30
2018-07-03T15:50:16.046Z,39.00
2018-07-03T15:52:44.686Z,39.30
2018-07-03T15:55:13.368Z,39.60
2018-07-03T15:57:42.002Z,41.20
2018-07-03T16:00:14.067Z,42.00
2018-07-03T16:02:58.452Z,41.30
2018-07-03T16:05:44.095Z,41.40
2018-07-03T16:09:06.639Z,41.10
2018-07-03T16:11:35.393Z,41.90
2018-07-03T16:14:04.121Z,41.70
2018-07-03T16:16:32.824Z,42.00
2018-07-03T16:19:07.076Z,41.60
2018-07-03T16:21:36.269Z,40.80
2018-07-03T16:24:05.358Z,42.20
2018-07-03T16:26:34.356Z,42.10
2018-07-03T16:29:04.532Z,42.30
2018-07-03T16:31:33.490Z,42.40
2018-07-03T16:34:02.486Z,43.30
2018-07-03T16:36:31.463Z,43.50
2018-07-03T16:39:00.451Z,43.80
2018-07-03T16:41:29.637Z,43.40
2018-07-03T16:43:58.403Z,42.00
2018-07-03T16:46:27.023Z,40.40
2018-07-03T16:48:55.688Z,40.00
2018-07-03T16:51:24.324Z,40.80
2018-07-03T16:53:53.216Z,42.00
2018-07-03T16:56:22.103Z,43.20
2018-07-03T16:58:51.051Z,43.40
2018-07-03T17:01:20.519Z,45.60
2018-07-03T17:03:49.211Z,46.80
2018-07-03T17:06:17.798Z,47.60
2018-07-03T17:08:46.403Z,48.70
2018-07-03T17:11:15.006Z,49.60
2018-07-03T17:13:43.756Z,50.80
2018-07-03T17:16:12.516Z,51.20
2018-07-03T17:19:50.345Z,52.70
2018-07-03T17:22:19.577Z,53.90
2018-07-03T17:24:48.322Z,55.60
2018-07-03T17:27:17.056Z,56.80
2018-07-03T17:29:45.703Z,56.80
2018-07-03T17:32:14.415Z,57.70
2018-07-03T17:34:43.664Z,58.20
2018-07-03T17:37:12.426Z,58.40
2018-07-03T17:42:37.933Z,59.40
2018-07-03T17:45:49.494Z,59.30
2018-07-03T17:48:18.123Z,59.30
2018-07-03T17:50:46.751Z,59.10
2018-07-03T17:53:15.802Z,59.80
2018-07-03T17:55:44.743Z,60.40
2018-07-03T17:58:13.751Z,60.70
2018-07-03T18:00:48.168Z,60.70
2018-07-03T18:03:16.938Z,60.60
2018-07-03T18:05:45.559Z,60.90
2018-07-03T18:08:14.256Z,60.90
2018-07-03T18:10:43.908Z,60.90
2018-07-03T18:13:12.643Z,61.30
2018-07-03T18:15:41.270Z,61.20
2018-07-03T18:20:38.412Z,61.50
2018-07-03T18:23:07.078Z,61.80
2018-07-03T18:25:36.149Z,61.80
2018-07-03T18:28:04.880Z,62.10
2018-07-03T18:30:33.569Z,62.50
2018-07-03T18:33:02.541Z,62.70
2018-07-03T18:35:31.556Z,62.90
2018-07-03T18:38:00.623Z,62.80
2018-07-03T18:40:29.555Z,62.80
2018-07-03T18:42:58.487Z,63.80
2018-07-03T18:45:27.254Z,63.20
2018-07-03T18:47:55.939Z,63.90
2018-07-03T18:50:25.588Z,65.10
2018-07-03T18:52:54.281Z,65.10
2018-07-03T18:55:23.045Z,65.50
2018-07-03T18:57:51.741Z,66.50
2018-07-03T19:00:20.401Z,66.40
2018-07-03T19:02:49.034Z,66.30
2018-07-03T19:05:18.203Z,65.90
2018-07-03T19:07:46.942Z,65.40
2018-07-03T19:12:44.111Z,66.00
2018-07-03T19:15:12.989Z,66.20
2018-07-03T19:20:10.877Z,67.10
2018-07-03T19:22:40.143Z,67.80
2018-07-03T19:25:09.899Z,68.10
2018-07-03T19:27:38.598Z,68.30
2018-07-03T19:30:07.486Z,68.80
2018-07-03T19:32:36.268Z,69.00
2018-07-03T19:35:05.092Z,70.30
2018-07-03T19:37:34.339Z,70.00
2018-07-03T19:40:04.114Z,70.00
2018-07-03T19:42:33.211Z,70.50
2018-07-03T19:45:02.222Z,70.30
2018-07-03T19:47:31.141Z,69.80
2018-07-03T19:50:00.136Z,69.50
2018-07-03T19:52:29.111Z,69.70
2018-07-03T19:57:26.483Z,69.60
2018-07-03T19:59:55.313Z,69.60
2018-07-03T20:02:24.115Z,68.50
2018-07-03T20:04:52.831Z,69.50
2018-07-03T20:07:21.559Z,70.70
2018-07-03T20:09:50.284Z,71.30
2018-07-03T20:12:18.952Z,72.10
2018-07-03T20:14:47.626Z,72.90
2018-07-03T20:17:16.271Z,74.40
2018-07-03T20:19:44.933Z,74.20
2018-07-03T20:22:13.742Z,74.60
2018-07-03T20:24:42.480Z,75.40
2018-07-03T20:27:11.221Z,75.50
2018-07-03T20:29:39.934Z,76.00
2018-07-03T20:32:08.664Z,76.10
2018-07-03T20:34:37.304Z,75.90
2018-07-03T20:37:06.011Z,75.90
2018-07-03T20:39:34.737Z,75.80
2018-07-03T20:42:03.477Z,76.00
2018-07-03T20:44:32.134Z,76.00
2018-07-03T20:49:29.197Z,76.00
2018-07-03T20:51:57.840Z,75.90
2018-07-03T20:54:26.464Z,75.30
2018-07-03T20:56:55.220Z,75.00
2018-07-03T20:59:23.889Z,75.20
2018-07-03T21:01:53.151Z,74.50
2018-07-03T21:04:21.918Z,74.50
2018-07-03T21:06:50.506Z,73.70
2018-07-03T21:09:20.204Z,73.50
2018-07-03T21:11:54.596Z,73.90
2018-07-03T21:14:23.595Z,74.00
2018-07-03T21:16:52.570Z,73.30
2018-07-03T21:19:23.518Z,73.20
2018-07-03T21:21:52.350Z,72.70
2018-07-03T21:24:21.096Z,72.60
2018-07-03T21:26:49.848Z,73.20
2018-07-03T21:29:18.586Z,73.80
2018-07-03T21:31:47.318Z,74.30
2018-07-03T21:34:15.994Z,74.70
2018-07-03T21:36:45.113Z,75.50
2018-07-03T21:39:13.841Z,75.80
2018-07-03T21:41:42.438Z,76.30
2018-07-03T21:46:40.246Z,77.10
2018-07-03T21:49:08.874Z,77.30
2018-07-03T21:51:37.511Z,77.50
2018-07-03T21:54:06.173Z,77.80
2018-07-03T21:59:03.301Z,78.80
2018-07-03T22:01:32.251Z,79.10
2018-07-03T22:04:01.681Z,79.60
2018-07-03T22:06:30.688Z,80.00
2018-07-03T22:09:00.288Z,80.40
2018-07-03T22:11:29.023Z,80.60
2018-07-03T22:13:57.754Z,80.80
2018-07-03T22:16:26.455Z,80.50
2018-07-03T22:18:55.134Z,80.40
2018-07-03T22:21:24.004Z,80.70
2018-07-03T22:23:52.973Z,80.70
2018-07-03T22:26:21.853Z,81.20
2018-07-03T22:28:50.788Z,81.30
2018-07-03T22:31:19.491Z,81.50
2018-07-03T22:33:48.179Z,81.70
2018-07-03T22:36:17.124Z,81.80
2018-07-03T22:38:45.924Z,81.20
2018-07-03T22:41:14.552Z,81.10
2018-07-03T22:43:43.266Z,81.00
2018-07-03T22:46:12.403Z,81.00
2018-07-03T22:48:41.061Z,80.90
2018-07-03T22:51:09.805Z,80.10
2018-07-03T22:53:38.698Z,79.80
2018-07-03T22:56:07.618Z,80.30
2018-07-03T22:58:36.688Z,80.70
2018-07-03T23:01:05.679Z,81.10
2018-07-03T23:03:34.667Z,81.10
2018-07-03T23:06:03.664Z,81.20
2018-07-03T23:08:32.708Z,81.50
2018-07-03T23:11:01.633Z,81.60
2018-07-03T23:13:30.411Z,81.80
2018-07-03T23:15:59.024Z,82.10
2018-07-03T23:18:27.601Z,82.00
2018-07-03T23:20:56.249Z,83.00
2018-07-03T23:23:25.668Z,83.50
2018-07-03T23:25:54.591Z,84.30
2018-07-03T23:28:24.031Z,84.30
2018-07-03T23:30:55.934Z,84.60
2018-07-03T23:33:24.901Z,85.10
2018-07-03T23:35:53.846Z,85.40
2018-07-03T23:38:22.769Z,85.60
2018-07-03T23:40:51.676Z,85.80
2018-07-03T23:43:21.229Z,85.50
2018-07-03T23:45:59.933Z,85.60
2018-07-03T23:48:45.338Z,85.50
2018-07-03T23:51:31.073Z,85.30
2018-07-03T23:54:16.737Z,85.50
2018-07-03T23:57:02.354Z,85.40
2018-07-03T23:59:47.789Z,85.60
